VPY weather

Chimoio Airport
Chimoio, Manica Province, Mozambique

Public forecast

Using degrees Celsius for public forecast. Weather courtesy of forecast.io.

Current aviation weather report (METAR) for Chimoio Airport

Retrieved 2020/06/05 21:00 UTC (43 minutes ago):

FQCH 052100Z /////KT 9999 FEW015 14/12 Q1026

Aviation forecast (TAF) for Chimoio Airport

Retrieved 2020/06/05 18:00 UTC (4 hours ago):

TAF FQCH 051600Z 0518/0618 23008KT 9999 FEW015 TX23/0613Z TN13/0603Z PROB30 TEMPO 0601/0605 5000 BR FEW010 BECMG 0606/0608 10010KT 9999 BKN015